Torroella de Montgrí (Baix Empordà)





Hora UTC 08:25
Temperatura 22.3 ºC
Humitat 82.0 %
Pressió 1014.4 hPa
Pluja 0.0 mm
Velocitat vent 8.0 km/h
Direcció vent

Dades diàries 2024-06-18



Hora UTC (hivern +1h; estiu +2h)
Temperatura (ºC) Humitat (%) Pressió (hPa) Velocitat vent (km/h) Precipitació (mm)
Hora UTC Aire Humitat Pressió Vel. Dir. Vel. Max Dir. Intent. màx 5 min.
00:05 20.2 90.0 1015.2 4.8 4.8 0.0
00:15 20.2 90.0 1015.2 4.8 11.3 0.0
00:25 20.1 90.0 1015.1 4.8 11.3 0.0
00:35 20.1 90.0 1014.9 4.8 11.3 0.0
00:45 20.1 90.0 1014.9 4.8 11.3 0.0
00:55 20.1 90.0 1014.6 3.2 11.3 0.0
01:05 20.1 90.0 1014.4 1.6 11.3 0.0
01:15 20.1 90.0 1014.4 1.6 11.3 0.0
01:25 20.0 90.0 1014.3 0.0 11.3 0.0
01:35 19.6 90.0 1014.2 0.0 11.3 0.0
01:45 19.6 90.0 1014.2 0.0 11.3 0.0
01:55 19.6 92.0 1014.2 0.0 11.3 0.0
02:05 19.6 91.0 1014.0 0.0 11.3 0.0
02:15 19.6 91.0 1014.0 0.0 11.3 0.0
02:25 19.4 92.0 1013.9 0.0 11.3 0.0
02:35 19.6 92.0 1013.8 3.2 11.3 0.0
02:45 19.6 92.0 1013.8 3.2 11.3 0.0
02:55 19.1 92.0 1013.7 0.0 11.3 0.0
03:05 18.2 92.0 1013.9 1.6 11.3 0.0
03:15 18.2 92.0 1013.9 1.6 11.3 0.0
03:25 18.1 94.0 1013.9 1.6 11.3 0.0
03:35 18.1 94.0 1013.8 0.0 11.3 0.0
03:45 18.1 94.0 1013.8 0.0 11.3 0.0
03:55 18.2 94.0 1013.8 0.0 11.3 0.0
04:05 18.3 95.0 1013.7 0.0 11.3 0.0
04:15 18.3 95.0 1013.7 0.0 11.3 0.0
04:25 18.2 95.0 1013.7 1.6 11.3 0.0
04:35 18.2 95.0 1013.7 0.0 11.3 0.0
04:45 18.2 95.0 1013.7 0.0 11.3 0.0
04:55 18.2 95.0 1013.5 3.2 11.3 0.0
05:05 18.2 95.0 1013.6 4.8 11.3 0.0
05:15 18.2 95.0 1013.6 4.8 11.3 0.0
05:25 17.9 95.0 1013.9 3.2 11.3 0.0
05:35 18.0 95.0 1014.0 1.6 11.3 0.0
05:45 18.0 95.0 1014.0 1.6 11.3 0.0
05:55 18.2 95.0 1014.1 1.6 11.3 0.0
06:05 18.3 96.0 1014.4 3.2 11.3 0.0
06:15 18.3 96.0 1014.4 3.2 11.3 0.0
06:25 18.3 96.0 1014.5 6.4 11.3 0.0
06:35 18.6 96.0 1014.7 4.8 11.3 0.0
06:45 18.6 96.0 1014.7 4.8 11.3 0.0
06:55 18.8 96.0 1014.8 6.4 12.9 0.0
07:05 19.3 95.0 1014.8 4.8 12.9 0.0
07:15 19.3 95.0 1014.8 4.8 12.9 0.0
07:25 19.9 94.0 1014.8 4.8 12.9 0.0
07:35 20.7 91.0 1014.6 3.2 12.9 0.0
07:45 20.7 91.0 1014.6 3.2 12.9 0.0
07:55 21.2 87.0 1014.3 6.4 14.5 0.0
08:05 21.8 84.0 1014.3 8.0 16.1 0.0
08:15 21.8 84.0 1014.3 8.0 16.1 0.0
08:25 22.3 82.0 1014.4 8.0 16.1 0.0
Màxima 22.3 96.0 1015.2 8.0 16.1 0.0
Mínima 17.9 82.0 1013.5
Total 0.0